sensor_id;sensor_type;location;lat;lon;timestamp;P1;durP1;ratioP1;P2;durP2;ratioP2
2522;SDS011;1272;53.332;9.860;2023-02-28T00:02:15;7.90;;;6.50;;
2522;SDS011;1272;53.332;9.860;2023-02-28T00:04:42;11.27;;;6.70;;
2522;SDS011;1272;53.332;9.860;2023-02-28T00:07:08;7.83;;;5.50;;
2522;SDS011;1272;53.332;9.860;2023-02-28T00:09:34;6.17;;;5.60;;
2522;SDS011;1272;53.332;9.860;2023-02-28T00:12:00;6.33;;;5.27;;
2522;SDS011;1272;53.332;9.860;2023-02-28T00:14:29;7.47;;;5.43;;
2522;SDS011;1272;53.332;9.860;2023-02-28T00:16:55;5.50;;;5.10;;
2522;SDS011;1272;53.332;9.860;2023-02-28T00:19:21;6.80;;;5.60;;
2522;SDS011;1272;53.332;9.860;2023-02-28T00:21:46;8.80;;;5.73;;
2522;SDS011;1272;53.332;9.860;2023-02-28T00:24:12;7.60;;;6.10;;
2522;SDS011;1272;53.332;9.860;2023-02-28T00:26:38;8.37;;;6.47;;
2522;SDS011;1272;53.332;9.860;2023-02-28T00:29:03;15.63;;;7.00;;
2522;SDS011;1272;53.332;9.860;2023-02-28T00:31:29;7.20;;;6.37;;
2522;SDS011;1272;53.332;9.860;2023-02-28T00:33:55;7.30;;;6.23;;
2522;SDS011;1272;53.332;9.860;2023-02-28T00:36:20;9.07;;;6.30;;
2522;SDS011;1272;53.332;9.860;2023-02-28T00:38:46;7.20;;;6.50;;
2522;SDS011;1272;53.332;9.860;2023-02-28T00:41:12;7.97;;;6.40;;
2522;SDS011;1272;53.332;9.860;2023-02-28T00:43:38;12.13;;;7.30;;
2522;SDS011;1272;53.332;9.860;2023-02-28T00:46:04;10.23;;;7.20;;
2522;SDS011;1272;53.332;9.860;2023-02-28T00:48:30;7.10;;;6.07;;
2522;SDS011;1272;53.332;9.860;2023-02-28T00:50:56;8.33;;;6.63;;
2522;SDS011;1272;53.332;9.860;2023-02-28T00:53:22;10.23;;;7.00;;
2522;SDS011;1272;53.332;9.860;2023-02-28T00:55:49;6.77;;;6.00;;
2522;SDS011;1272;53.332;9.860;2023-02-28T00:58:15;7.67;;;6.83;;
2522;SDS011;1272;53.332;9.860;2023-02-28T01:00:40;9.53;;;7.40;;
2522;SDS011;1272;53.332;9.860;2023-02-28T01:03:06;8.43;;;6.67;;
2522;SDS011;1272;53.332;9.860;2023-02-28T01:05:32;9.83;;;7.43;;
2522;SDS011;1272;53.332;9.860;2023-02-28T01:07:57;9.70;;;8.20;;
2522;SDS011;1272;53.332;9.860;2023-02-28T01:10:23;9.67;;;7.57;;
2522;SDS011;1272;53.332;9.860;2023-02-28T01:12:50;10.23;;;7.93;;
2522;SDS011;1272;53.332;9.860;2023-02-28T01:15:16;12.07;;;8.63;;
2522;SDS011;1272;53.332;9.860;2023-02-28T01:17:42;12.07;;;8.83;;
2522;SDS011;1272;53.332;9.860;2023-02-28T01:20:07;10.10;;;8.93;;
2522;SDS011;1272;53.332;9.860;2023-02-28T01:22:34;13.53;;;9.20;;
2522;SDS011;1272;53.332;9.860;2023-02-28T01:25:00;13.30;;;9.53;;
2522;SDS011;1272;53.332;9.860;2023-02-28T01:27:26;12.20;;;9.20;;
2522;SDS011;1272;53.332;9.860;2023-02-28T01:29:52;11.00;;;9.77;;
2522;SDS011;1272;53.332;9.860;2023-02-28T01:32:17;10.77;;;9.03;;
2522;SDS011;1272;53.332;9.860;2023-02-28T01:34:43;9.80;;;7.53;;
2522;SDS011;1272;53.332;9.860;2023-02-28T01:37:09;8.43;;;7.60;;
2522;SDS011;1272;53.332;9.860;2023-02-28T01:39:34;11.13;;;7.90;;
2522;SDS011;1272;53.332;9.860;2023-02-28T01:42:00;9.10;;;7.50;;
2522;SDS011;1272;53.332;9.860;2023-02-28T01:47:29;11.83;;;6.90;;
2522;SDS011;1272;53.332;9.860;2023-02-28T01:50:06;10.23;;;7.47;;
2522;SDS011;1272;53.332;9.860;2023-02-28T01:52:39;9.30;;;7.30;;
2522;SDS011;1272;53.332;9.860;2023-02-28T01:55:06;7.50;;;6.20;;
2522;SDS011;1272;53.332;9.860;2023-02-28T01:57:34;9.73;;;6.20;;
2522;SDS011;1272;53.332;9.860;2023-02-28T02:00:14;10.30;;;6.90;;
2522;SDS011;1272;53.332;9.860;2023-02-28T02:02:43;10.17;;;6.27;;
2522;SDS011;1272;53.332;9.860;2023-02-28T02:05:14;9.27;;;7.83;;
2522;SDS011;1272;53.332;9.860;2023-02-28T02:07:43;7.47;;;6.60;;
2522;SDS011;1272;53.332;9.860;2023-02-28T02:10:16;9.80;;;6.40;;
2522;SDS011;1272;53.332;9.860;2023-02-28T02:15:19;8.43;;;6.43;;
2522;SDS011;1272;53.332;9.860;2023-02-28T02:18:02;7.50;;;6.40;;
2522;SDS011;1272;53.332;9.860;2023-02-28T02:20:46;7.73;;;6.40;;
2522;SDS011;1272;53.332;9.860;2023-02-28T02:23:39;6.43;;;5.80;;
2522;SDS011;1272;53.332;9.860;2023-02-28T02:29:11;7.33;;;6.43;;
2522;SDS011;1272;53.332;9.860;2023-02-28T02:34:35;8.83;;;5.90;;
2522;SDS011;1272;53.332;9.860;2023-02-28T02:37:36;6.63;;;5.93;;
2522;SDS011;1272;53.332;9.860;2023-02-28T02:45:24;7.63;;;6.90;;
2522;SDS011;1272;53.332;9.860;2023-02-28T02:48:00;8.87;;;6.57;;
2522;SDS011;1272;53.332;9.860;2023-02-28T02:50:32;8.90;;;5.90;;
2522;SDS011;1272;53.332;9.860;2023-02-28T02:53:03;7.77;;;5.80;;
2522;SDS011;1272;53.332;9.860;2023-02-28T02:55:31;7.40;;;5.70;;
2522;SDS011;1272;53.332;9.860;2023-02-28T02:58:02;6.37;;;5.50;;
2522;SDS011;1272;53.332;9.860;2023-02-28T03:00:36;7.10;;;6.37;;
2522;SDS011;1272;53.332;9.860;2023-02-28T03:03:04;6.37;;;5.43;;
2522;SDS011;1272;53.332;9.860;2023-02-28T03:05:33;7.00;;;6.10;;
2522;SDS011;1272;53.332;9.860;2023-02-28T03:08:13;8.93;;;6.87;;
2522;SDS011;1272;53.332;9.860;2023-02-28T03:10:43;7.37;;;6.20;;
2522;SDS011;1272;53.332;9.860;2023-02-28T03:16:08;11.87;;;6.00;;
2522;SDS011;1272;53.332;9.860;2023-02-28T03:27:29;6.20;;;5.50;;
2522;SDS011;1272;53.332;9.860;2023-02-28T03:33:01;8.03;;;6.57;;
2522;SDS011;1272;53.332;9.860;2023-02-28T03:35:54;7.87;;;5.90;;
2522;SDS011;1272;53.332;9.860;2023-02-28T03:40:55;7.83;;;6.03;;
2522;SDS011;1272;53.332;9.860;2023-02-28T03:43:28;8.33;;;6.30;;
2522;SDS011;1272;53.332;9.860;2023-02-28T03:45:57;7.40;;;5.90;;
2522;SDS011;1272;53.332;9.860;2023-02-28T03:48:40;7.53;;;5.33;;
2522;SDS011;1272;53.332;9.860;2023-02-28T03:51:14;7.03;;;5.30;;
2522;SDS011;1272;53.332;9.860;2023-02-28T03:53:44;5.97;;;5.23;;
2522;SDS011;1272;53.332;9.860;2023-02-28T03:56:24;5.00;;;4.07;;
2522;SDS011;1272;53.332;9.860;2023-02-28T03:59:15;3.57;;;3.27;;
2522;SDS011;1272;53.332;9.860;2023-02-28T04:02:03;4.90;;;4.10;;
2522;SDS011;1272;53.332;9.860;2023-02-28T04:04:29;8.17;;;4.43;;
2522;SDS011;1272;53.332;9.860;2023-02-28T04:07:01;6.37;;;3.67;;
2522;SDS011;1272;53.332;9.860;2023-02-28T04:09:33;6.43;;;4.20;;
2522;SDS011;1272;53.332;9.860;2023-02-28T04:11:59;5.37;;;4.20;;
2522;SDS011;1272;53.332;9.860;2023-02-28T04:14:25;6.40;;;5.33;;
2522;SDS011;1272;53.332;9.860;2023-02-28T04:16:51;7.53;;;5.03;;
2522;SDS011;1272;53.332;9.860;2023-02-28T04:19:17;9.93;;;5.27;;
2522;SDS011;1272;53.332;9.860;2023-02-28T04:21:47;5.40;;;4.90;;
2522;SDS011;1272;53.332;9.860;2023-02-28T04:24:15;7.37;;;5.33;;
2522;SDS011;1272;53.332;9.860;2023-02-28T04:26:44;8.73;;;6.60;;
2522;SDS011;1272;53.332;9.860;2023-02-28T04:29:13;10.60;;;6.40;;
2522;SDS011;1272;53.332;9.860;2023-02-28T04:31:43;10.70;;;5.77;;
2522;SDS011;1272;53.332;9.860;2023-02-28T04:34:08;9.43;;;5.60;;
2522;SDS011;1272;53.332;9.860;2023-02-28T04:36:34;10.27;;;7.33;;
2522;SDS011;1272;53.332;9.860;2023-02-28T04:39:00;10.20;;;6.83;;
2522;SDS011;1272;53.332;9.860;2023-02-28T04:41:26;10.03;;;6.30;;
2522;SDS011;1272;53.332;9.860;2023-02-28T04:43:52;12.10;;;6.60;;
2522;SDS011;1272;53.332;9.860;2023-02-28T04:46:18;13.10;;;7.70;;
2522;SDS011;1272;53.332;9.860;2023-02-28T04:48:44;15.43;;;7.03;;
2522;SDS011;1272;53.332;9.860;2023-02-28T04:51:11;12.10;;;6.70;;
2522;SDS011;1272;53.332;9.860;2023-02-28T04:53:38;12.53;;;7.73;;
2522;SDS011;1272;53.332;9.860;2023-02-28T04:56:10;12.30;;;6.57;;
2522;SDS011;1272;53.332;9.860;2023-02-28T04:58:38;8.80;;;5.90;;
2522;SDS011;1272;53.332;9.860;2023-02-28T05:01:15;13.87;;;6.87;;
2522;SDS011;1272;53.332;9.860;2023-02-28T05:03:53;10.10;;;6.40;;
2522;SDS011;1272;53.332;9.860;2023-02-28T05:06:20;9.17;;;5.50;;
2522;SDS011;1272;53.332;9.860;2023-02-28T05:08:48;9.80;;;6.17;;
2522;SDS011;1272;53.332;9.860;2023-02-28T05:11:24;10.33;;;5.90;;
2522;SDS011;1272;53.332;9.860;2023-02-28T05:13:52;8.73;;;5.00;;
2522;SDS011;1272;53.332;9.860;2023-02-28T05:16:19;10.43;;;5.00;;
2522;SDS011;1272;53.332;9.860;2023-02-28T05:18:45;8.23;;;4.70;;
2522;SDS011;1272;53.332;9.860;2023-02-28T05:24:05;9.27;;;4.00;;
2522;SDS011;1272;53.332;9.860;2023-02-28T05:26:36;6.77;;;4.27;;
2522;SDS011;1272;53.332;9.860;2023-02-28T05:29:04;5.50;;;3.40;;
2522;SDS011;1272;53.332;9.860;2023-02-28T05:31:30;4.03;;;3.63;;
2522;SDS011;1272;53.332;9.860;2023-02-28T05:33:56;3.50;;;3.20;;
2522;SDS011;1272;53.332;9.860;2023-02-28T05:36:21;4.73;;;3.70;;
2522;SDS011;1272;53.332;9.860;2023-02-28T05:38:47;5.17;;;3.93;;
2522;SDS011;1272;53.332;9.860;2023-02-28T05:41:14;4.70;;;3.53;;
2522;SDS011;1272;53.332;9.860;2023-02-28T05:43:40;3.30;;;3.00;;
2522;SDS011;1272;53.332;9.860;2023-02-28T05:46:06;3.70;;;3.40;;
2522;SDS011;1272;53.332;9.860;2023-02-28T05:48:34;3.13;;;2.93;;
2522;SDS011;1272;53.332;9.860;2023-02-28T05:51:01;3.60;;;3.30;;
2522;SDS011;1272;53.332;9.860;2023-02-28T05:53:28;4.27;;;3.40;;
2522;SDS011;1272;53.332;9.860;2023-02-28T05:55:54;3.60;;;3.30;;
2522;SDS011;1272;53.332;9.860;2023-02-28T05:58:20;11.73;;;3.50;;
2522;SDS011;1272;53.332;9.860;2023-02-28T06:00:46;4.10;;;3.70;;
2522;SDS011;1272;53.332;9.860;2023-02-28T06:03:12;5.50;;;3.50;;
2522;SDS011;1272;53.332;9.860;2023-02-28T06:05:37;3.83;;;3.50;;
2522;SDS011;1272;53.332;9.860;2023-02-28T06:08:03;3.43;;;3.13;;
2522;SDS011;1272;53.332;9.860;2023-02-28T06:10:32;3.60;;;2.83;;
2522;SDS011;1272;53.332;9.860;2023-02-28T06:13:01;3.90;;;3.47;;
2522;SDS011;1272;53.332;9.860;2023-02-28T06:15:28;3.63;;;3.33;;
2522;SDS011;1272;53.332;9.860;2023-02-28T06:17:54;3.70;;;3.40;;
2522;SDS011;1272;53.332;9.860;2023-02-28T06:20:21;5.63;;;3.43;;
2522;SDS011;1272;53.332;9.860;2023-02-28T06:22:48;3.37;;;2.73;;
2522;SDS011;1272;53.332;9.860;2023-02-28T06:25:15;4.10;;;3.70;;
2522;SDS011;1272;53.332;9.860;2023-02-28T06:27:42;4.87;;;3.70;;
2522;SDS011;1272;53.332;9.860;2023-02-28T06:30:08;5.07;;;3.57;;
2522;SDS011;1272;53.332;9.860;2023-02-28T06:32:35;3.97;;;3.57;;
2522;SDS011;1272;53.332;9.860;2023-02-28T06:35:01;3.03;;;2.83;;
2522;SDS011;1272;53.332;9.860;2023-02-28T06:37:27;4.67;;;3.17;;
2522;SDS011;1272;53.332;9.860;2023-02-28T06:39:53;4.10;;;3.40;;
2522;SDS011;1272;53.332;9.860;2023-02-28T06:42:21;3.53;;;3.20;;
2522;SDS011;1272;53.332;9.860;2023-02-28T06:44:50;4.07;;;3.50;;
2522;SDS011;1272;53.332;9.860;2023-02-28T06:47:16;3.30;;;3.00;;
2522;SDS011;1272;53.332;9.860;2023-02-28T06:49:41;3.50;;;3.20;;
2522;SDS011;1272;53.332;9.860;2023-02-28T06:52:07;7.20;;;3.67;;
2522;SDS011;1272;53.332;9.860;2023-02-28T06:54:35;3.53;;;3.10;;
2522;SDS011;1272;53.332;9.860;2023-02-28T06:57:02;3.73;;;3.43;;
2522;SDS011;1272;53.332;9.860;2023-02-28T06:59:28;3.87;;;3.50;;
2522;SDS011;1272;53.332;9.860;2023-02-28T07:01:53;4.17;;;3.73;;
2522;SDS011;1272;53.332;9.860;2023-02-28T07:04:20;4.17;;;3.60;;
2522;SDS011;1272;53.332;9.860;2023-02-28T07:06:46;4.20;;;3.80;;
2522;SDS011;1272;53.332;9.860;2023-02-28T07:09:12;7.90;;;3.70;;
2522;SDS011;1272;53.332;9.860;2023-02-28T07:11:39;5.27;;;3.97;;
2522;SDS011;1272;53.332;9.860;2023-02-28T07:14:05;4.13;;;3.30;;
2522;SDS011;1272;53.332;9.860;2023-02-28T07:16:31;4.43;;;3.20;;
2522;SDS011;1272;53.332;9.860;2023-02-28T07:18:57;4.30;;;3.47;;
2522;SDS011;1272;53.332;9.860;2023-02-28T07:21:23;4.20;;;3.87;;
2522;SDS011;1272;53.332;9.860;2023-02-28T07:23:49;3.50;;;3.20;;
2522;SDS011;1272;53.332;9.860;2023-02-28T07:26:15;4.33;;;4.03;;
2522;SDS011;1272;53.332;9.860;2023-02-28T07:28:43;4.23;;;3.83;;
2522;SDS011;1272;53.332;9.860;2023-02-28T07:31:11;4.77;;;3.83;;
2522;SDS011;1272;53.332;9.860;2023-02-28T07:33:42;5.47;;;3.93;;
2522;SDS011;1272;53.332;9.860;2023-02-28T07:36:09;5.13;;;3.80;;
2522;SDS011;1272;53.332;9.860;2023-02-28T07:38:44;7.20;;;4.47;;
2522;SDS011;1272;53.332;9.860;2023-02-28T07:41:13;4.63;;;4.07;;
2522;SDS011;1272;53.332;9.860;2023-02-28T07:43:43;5.93;;;4.60;;
2522;SDS011;1272;53.332;9.860;2023-02-28T07:46:10;4.70;;;4.30;;
2522;SDS011;1272;53.332;9.860;2023-02-28T07:48:39;4.70;;;4.30;;
2522;SDS011;1272;53.332;9.860;2023-02-28T07:51:05;5.80;;;4.60;;
2522;SDS011;1272;53.332;9.860;2023-02-28T07:53:32;4.53;;;4.23;;
2522;SDS011;1272;53.332;9.860;2023-02-28T07:55:58;6.40;;;4.47;;
2522;SDS011;1272;53.332;9.860;2023-02-28T07:58:26;5.43;;;4.17;;
2522;SDS011;1272;53.332;9.860;2023-02-28T08:00:52;4.63;;;4.10;;
2522;SDS011;1272;53.332;9.860;2023-02-28T08:03:19;6.30;;;4.57;;
2522;SDS011;1272;53.332;9.860;2023-02-28T08:05:49;4.13;;;3.83;;
2522;SDS011;1272;53.332;9.860;2023-02-28T08:08:17;5.20;;;4.70;;
2522;SDS011;1272;53.332;9.860;2023-02-28T08:10:43;3.93;;;3.63;;
2522;SDS011;1272;53.332;9.860;2023-02-28T08:13:09;4.70;;;3.90;;
2522;SDS011;1272;53.332;9.860;2023-02-28T08:15:34;4.93;;;4.53;;
2522;SDS011;1272;53.332;9.860;2023-02-28T08:18:01;5.50;;;4.53;;
2522;SDS011;1272;53.332;9.860;2023-02-28T08:20:27;7.73;;;5.27;;
2522;SDS011;1272;53.332;9.860;2023-02-28T08:22:52;5.13;;;4.73;;
2522;SDS011;1272;53.332;9.860;2023-02-28T08:25:18;5.00;;;4.50;;
2522;SDS011;1272;53.332;9.860;2023-02-28T08:27:44;7.67;;;6.20;;
2522;SDS011;1272;53.332;9.860;2023-02-28T08:30:19;6.67;;;6.10;;
2522;SDS011;1272;53.332;9.860;2023-02-28T08:32:44;7.90;;;6.43;;
2522;SDS011;1272;53.332;9.860;2023-02-28T08:35:10;8.37;;;7.30;;
2522;SDS011;1272;53.332;9.860;2023-02-28T08:37:36;12.03;;;7.23;;
2522;SDS011;1272;53.332;9.860;2023-02-28T08:40:02;10.40;;;7.40;;
2522;SDS011;1272;53.332;9.860;2023-02-28T08:42:29;11.03;;;6.90;;
2522;SDS011;1272;53.332;9.860;2023-02-28T08:44:54;9.53;;;6.90;;
2522;SDS011;1272;53.332;9.860;2023-02-28T08:47:20;9.00;;;7.30;;
2522;SDS011;1272;53.332;9.860;2023-02-28T08:49:46;10.30;;;6.87;;
2522;SDS011;1272;53.332;9.860;2023-02-28T08:52:11;7.83;;;6.50;;
2522;SDS011;1272;53.332;9.860;2023-02-28T08:54:37;6.37;;;5.77;;
2522;SDS011;1272;53.332;9.860;2023-02-28T08:57:03;10.53;;;5.97;;
2522;SDS011;1272;53.332;9.860;2023-02-28T08:59:29;6.60;;;6.00;;
2522;SDS011;1272;53.332;9.860;2023-02-28T09:01:54;6.90;;;5.30;;
2522;SDS011;1272;53.332;9.860;2023-02-28T09:04:20;6.53;;;4.87;;
2522;SDS011;1272;53.332;9.860;2023-02-28T09:06:46;6.40;;;4.93;;
2522;SDS011;1272;53.332;9.860;2023-02-28T09:09:13;7.43;;;4.73;;
2522;SDS011;1272;53.332;9.860;2023-02-28T09:11:39;3.57;;;3.37;;
2522;SDS011;1272;53.332;9.860;2023-02-28T09:14:05;3.97;;;3.53;;
2522;SDS011;1272;53.332;9.860;2023-02-28T09:16:31;3.90;;;2.90;;
2522;SDS011;1272;53.332;9.860;2023-02-28T09:19:03;2.73;;;2.53;;
2522;SDS011;1272;53.332;9.860;2023-02-28T09:21:29;3.20;;;2.10;;
2522;SDS011;1272;53.332;9.860;2023-02-28T09:23:54;2.07;;;1.63;;
2522;SDS011;1272;53.332;9.860;2023-02-28T09:26:24;1.70;;;1.60;;
2522;SDS011;1272;53.332;9.860;2023-02-28T09:28:53;2.60;;;1.50;;
2522;SDS011;1272;53.332;9.860;2023-02-28T09:31:23;1.83;;;1.53;;
2522;SDS011;1272;53.332;9.860;2023-02-28T09:33:52;1.37;;;1.27;;
2522;SDS011;1272;53.332;9.860;2023-02-28T09:36:20;1.40;;;1.30;;
2522;SDS011;1272;53.332;9.860;2023-02-28T09:38:47;1.57;;;1.47;;
2522;SDS011;1272;53.332;9.860;2023-02-28T09:41:15;1.70;;;1.60;;
2522;SDS011;1272;53.332;9.860;2023-02-28T09:43:45;7.33;;;1.47;;
2522;SDS011;1272;53.332;9.860;2023-02-28T09:49:22;2.80;;;2.03;;
2522;SDS011;1272;53.332;9.860;2023-02-28T09:51:51;1.60;;;1.50;;
2522;SDS011;1272;53.332;9.860;2023-02-28T09:54:23;1.50;;;1.20;;
2522;SDS011;1272;53.332;9.860;2023-02-28T09:56:59;1.20;;;1.10;;
2522;SDS011;1272;53.332;9.860;2023-02-28T10:05:20;3.07;;;1.60;;
2522;SDS011;1272;53.332;9.860;2023-02-28T10:10:44;1.73;;;1.63;;
2522;SDS011;1272;53.332;9.860;2023-02-28T10:16:40;2.50;;;2.40;;
2522;SDS011;1272;53.332;9.860;2023-02-28T10:25:01;1.90;;;1.40;;
2522;SDS011;1272;53.332;9.860;2023-02-28T10:27:30;8.43;;;1.60;;
2522;SDS011;1272;53.332;9.860;2023-02-28T10:29:58;1.67;;;1.57;;
2522;SDS011;1272;53.332;9.860;2023-02-28T10:32:34;3.23;;;1.63;;
2522;SDS011;1272;53.332;9.860;2023-02-28T10:37:30;1.63;;;1.30;;
2522;SDS011;1272;53.332;9.860;2023-02-28T10:39:57;4.10;;;1.93;;
2522;SDS011;1272;53.332;9.860;2023-02-28T10:42:29;1.60;;;1.50;;
2522;SDS011;1272;53.332;9.860;2023-02-28T10:45:13;0.93;;;0.93;;
2522;SDS011;1272;53.332;9.860;2023-02-28T10:47:54;1.43;;;1.10;;
2522;SDS011;1272;53.332;9.860;2023-02-28T10:50:50;1.70;;;1.60;;
2522;SDS011;1272;53.332;9.860;2023-02-28T10:55:56;3.10;;;1.80;;
2522;SDS011;1272;53.332;9.860;2023-02-28T10:58:26;1.87;;;1.77;;
2522;SDS011;1272;53.332;9.860;2023-02-28T11:00:58;1.70;;;1.60;;
2522;SDS011;1272;53.332;9.860;2023-02-28T11:03:28;4.50;;;1.70;;
2522;SDS011;1272;53.332;9.860;2023-02-28T11:05:58;1.83;;;1.10;;
2522;SDS011;1272;53.332;9.860;2023-02-28T11:08:29;1.63;;;1.53;;
2522;SDS011;1272;53.332;9.860;2023-02-28T11:10:57;3.63;;;1.70;;
2522;SDS011;1272;53.332;9.860;2023-02-28T11:13:33;1.93;;;1.80;;
2522;SDS011;1272;53.332;9.860;2023-02-28T11:16:04;1.80;;;1.53;;
2522;SDS011;1272;53.332;9.860;2023-02-28T11:18:42;1.40;;;1.30;;
2522;SDS011;1272;53.332;9.860;2023-02-28T11:21:08;1.53;;;1.43;;
2522;SDS011;1272;53.332;9.860;2023-02-28T11:23:40;1.33;;;1.23;;
2522;SDS011;1272;53.332;9.860;2023-02-28T11:26:07;1.80;;;1.70;;
2522;SDS011;1272;53.332;9.860;2023-02-28T11:28:37;5.47;;;1.60;;
2522;SDS011;1272;53.332;9.860;2023-02-28T11:33:51;2.77;;;1.70;;
2522;SDS011;1272;53.332;9.860;2023-02-28T11:36:29;2.23;;;1.50;;
2522;SDS011;1272;53.332;9.860;2023-02-28T11:38:59;1.50;;;1.20;;
2522;SDS011;1272;53.332;9.860;2023-02-28T11:41:52;1.83;;;1.20;;
2522;SDS011;1272;53.332;9.860;2023-02-28T11:47:08;2.70;;;1.20;;
2522;SDS011;1272;53.332;9.860;2023-02-28T11:53:04;1.53;;;1.43;;
2522;SDS011;1272;53.332;9.860;2023-02-28T12:01:29;2.20;;;1.20;;
2522;SDS011;1272;53.332;9.860;2023-02-28T12:04:14;3.17;;;0.90;;
2522;SDS011;1272;53.332;9.860;2023-02-28T12:10:27;1.30;;;1.23;;
2522;SDS011;1272;53.332;9.860;2023-02-28T12:12:33;2.83;;;1.60;;
2522;SDS011;1272;53.332;9.860;2023-02-28T12:23:59;1.63;;;1.40;;
2522;SDS011;1272;53.332;9.860;2023-02-28T12:26:32;1.17;;;1.10;;
2522;SDS011;1272;53.332;9.860;2023-02-28T12:29:21;1.27;;;1.23;;
2522;SDS011;1272;53.332;9.860;2023-02-28T12:32:06;1.73;;;1.30;;
2522;SDS011;1272;53.332;9.860;2023-02-28T12:34:41;1.57;;;1.30;;
2522;SDS011;1272;53.332;9.860;2023-02-28T12:37:11;2.40;;;1.30;;
2522;SDS011;1272;53.332;9.860;2023-02-28T12:39:46;2.00;;;1.40;;
2522;SDS011;1272;53.332;9.860;2023-02-28T12:44:56;1.20;;;1.10;;
2522;SDS011;1272;53.332;9.860;2023-02-28T12:47:26;1.77;;;1.67;;
2522;SDS011;1272;53.332;9.860;2023-02-28T12:49:59;1.67;;;1.57;;
2522;SDS011;1272;53.332;9.860;2023-02-28T12:55:21;1.20;;;1.10;;
2522;SDS011;1272;53.332;9.860;2023-02-28T12:58:38;1.50;;;1.40;;
2522;SDS011;1272;53.332;9.860;2023-02-28T13:01:15;1.57;;;1.50;;
2522;SDS011;1272;53.332;9.860;2023-02-28T13:07:08;1.57;;;1.47;;
2522;SDS011;1272;53.332;9.860;2023-02-28T13:09:59;1.53;;;1.47;;
2522;SDS011;1272;53.332;9.860;2023-02-28T13:12:27;1.17;;;1.07;;
2522;SDS011;1272;53.332;9.860;2023-02-28T13:17:56;1.67;;;1.30;;
2522;SDS011;1272;53.332;9.860;2023-02-28T13:20:25;1.97;;;1.47;;
2522;SDS011;1272;53.332;9.860;2023-02-28T13:22:59;2.80;;;1.30;;
2522;SDS011;1272;53.332;9.860;2023-02-28T13:28:11;1.50;;;1.40;;
2522;SDS011;1272;53.332;9.860;2023-02-28T13:33:34;1.80;;;1.60;;
2522;SDS011;1272;53.332;9.860;2023-02-28T13:38:41;2.20;;;2.10;;
2522;SDS011;1272;53.332;9.860;2023-02-28T13:49:32;2.33;;;1.30;;
2522;SDS011;1272;53.332;9.860;2023-02-28T13:57:41;1.30;;;1.30;;
2522;SDS011;1272;53.332;9.860;2023-02-28T14:05:26;5.17;;;2.10;;
2522;SDS011;1272;53.332;9.860;2023-02-28T14:07:56;1.10;;;1.00;;
2522;SDS011;1272;53.332;9.860;2023-02-28T14:12:59;1.03;;;0.93;;
2522;SDS011;1272;53.332;9.860;2023-02-28T14:18:20;1.27;;;1.20;;
2522;SDS011;1272;53.332;9.860;2023-02-28T14:20:58;2.70;;;1.63;;
2522;SDS011;1272;53.332;9.860;2023-02-28T14:26:03;2.93;;;1.60;;
2522;SDS011;1272;53.332;9.860;2023-02-28T14:31:37;1.83;;;1.73;;
2522;SDS011;1272;53.332;9.860;2023-02-28T14:36:47;1.80;;;1.70;;
2522;SDS011;1272;53.332;9.860;2023-02-28T14:39:15;1.77;;;1.40;;
2522;SDS011;1272;53.332;9.860;2023-02-28T14:41:45;1.87;;;1.60;;
2522;SDS011;1272;53.332;9.860;2023-02-28T14:46:44;1.70;;;1.60;;
2522;SDS011;1272;53.332;9.860;2023-02-28T14:49:15;1.70;;;1.60;;
2522;SDS011;1272;53.332;9.860;2023-02-28T14:52:29;1.93;;;1.83;;
2522;SDS011;1272;53.332;9.860;2023-02-28T14:54:54;1.77;;;1.63;;
2522;SDS011;1272;53.332;9.860;2023-02-28T14:57:24;5.57;;;3.50;;
2522;SDS011;1272;53.332;9.860;2023-02-28T15:00:11;1.93;;;1.53;;
2522;SDS011;1272;53.332;9.860;2023-02-28T15:02:41;3.87;;;1.50;;
2522;SDS011;1272;53.332;9.860;2023-02-28T15:07:42;1.67;;;1.57;;
2522;SDS011;1272;53.332;9.860;2023-02-28T15:10:22;1.20;;;1.20;;
2522;SDS011;1272;53.332;9.860;2023-02-28T15:15:21;2.00;;;1.50;;
2522;SDS011;1272;53.332;9.860;2023-02-28T15:17:58;1.23;;;1.23;;
2522;SDS011;1272;53.332;9.860;2023-02-28T15:20:25;4.00;;;1.50;;
2522;SDS011;1272;53.332;9.860;2023-02-28T15:22:52;1.40;;;1.30;;
2522;SDS011;1272;53.332;9.860;2023-02-28T15:25:21;3.80;;;1.60;;
2522;SDS011;1272;53.332;9.860;2023-02-28T15:27:49;1.53;;;1.40;;
2522;SDS011;1272;53.332;9.860;2023-02-28T15:30:19;1.70;;;1.60;;
2522;SDS011;1272;53.332;9.860;2023-02-28T15:33:01;1.33;;;1.20;;
2522;SDS011;1272;53.332;9.860;2023-02-28T15:35:30;1.60;;;1.50;;
2522;SDS011;1272;53.332;9.860;2023-02-28T15:38:00;1.50;;;1.40;;
2522;SDS011;1272;53.332;9.860;2023-02-28T15:40:41;1.40;;;1.30;;
2522;SDS011;1272;53.332;9.860;2023-02-28T15:43:15;1.70;;;1.23;;
2522;SDS011;1272;53.332;9.860;2023-02-28T15:45:47;1.73;;;1.57;;
2522;SDS011;1272;53.332;9.860;2023-02-28T15:50:42;2.10;;;1.33;;
2522;SDS011;1272;53.332;9.860;2023-02-28T15:53:12;1.37;;;1.27;;
2522;SDS011;1272;53.332;9.860;2023-02-28T15:55:43;3.13;;;1.23;;
2522;SDS011;1272;53.332;9.860;2023-02-28T15:58:10;1.80;;;1.70;;
2522;SDS011;1272;53.332;9.860;2023-02-28T16:00:38;1.80;;;1.67;;
2522;SDS011;1272;53.332;9.860;2023-02-28T16:06:15;1.73;;;1.63;;
2522;SDS011;1272;53.332;9.860;2023-02-28T16:08:55;1.63;;;1.30;;
2522;SDS011;1272;53.332;9.860;2023-02-28T16:11:21;2.43;;;1.60;;
2522;SDS011;1272;53.332;9.860;2023-02-28T16:13:47;3.33;;;1.37;;
2522;SDS011;1272;53.332;9.860;2023-02-28T16:16:17;1.40;;;1.30;;
2522;SDS011;1272;53.332;9.860;2023-02-28T16:18:44;1.80;;;1.70;;
2522;SDS011;1272;53.332;9.860;2023-02-28T16:21:10;1.80;;;1.70;;
2522;SDS011;1272;53.332;9.860;2023-02-28T16:23:36;3.53;;;1.60;;
2522;SDS011;1272;53.332;9.860;2023-02-28T16:26:02;1.70;;;1.60;;
2522;SDS011;1272;53.332;9.860;2023-02-28T16:28:31;1.40;;;1.30;;
2522;SDS011;1272;53.332;9.860;2023-02-28T16:30:59;1.57;;;1.57;;
2522;SDS011;1272;53.332;9.860;2023-02-28T16:33:27;1.77;;;1.63;;
2522;SDS011;1272;53.332;9.860;2023-02-28T16:35:53;3.13;;;2.40;;
2522;SDS011;1272;53.332;9.860;2023-02-28T16:38:19;2.30;;;2.20;;
2522;SDS011;1272;53.332;9.860;2023-02-28T16:40:46;2.70;;;2.50;;
2522;SDS011;1272;53.332;9.860;2023-02-28T16:43:15;2.20;;;2.10;;
2522;SDS011;1272;53.332;9.860;2023-02-28T16:45:44;3.70;;;2.20;;
2522;SDS011;1272;53.332;9.860;2023-02-28T16:48:14;3.40;;;1.90;;
2522;SDS011;1272;53.332;9.860;2023-02-28T16:50:43;2.27;;;2.07;;
2522;SDS011;1272;53.332;9.860;2023-02-28T16:53:09;1.83;;;1.73;;
2522;SDS011;1272;53.332;9.860;2023-02-28T16:55:35;3.17;;;2.50;;
2522;SDS011;1272;53.332;9.860;2023-02-28T16:58:02;3.23;;;2.97;;
2522;SDS011;1272;53.332;9.860;2023-02-28T17:00:29;3.53;;;2.10;;
2522;SDS011;1272;53.332;9.860;2023-02-28T17:02:57;3.37;;;1.70;;
2522;SDS011;1272;53.332;9.860;2023-02-28T17:05:24;1.80;;;1.70;;
2522;SDS011;1272;53.332;9.860;2023-02-28T17:07:52;2.13;;;1.93;;
2522;SDS011;1272;53.332;9.860;2023-02-28T17:10:20;2.97;;;2.57;;
2522;SDS011;1272;53.332;9.860;2023-02-28T17:12:51;3.30;;;2.63;;
2522;SDS011;1272;53.332;9.860;2023-02-28T17:15:19;4.47;;;3.30;;
2522;SDS011;1272;53.332;9.860;2023-02-28T17:17:48;2.90;;;2.70;;
2522;SDS011;1272;53.332;9.860;2023-02-28T17:20:19;3.50;;;3.10;;
2522;SDS011;1272;53.332;9.860;2023-02-28T17:22:51;4.80;;;3.40;;
2522;SDS011;1272;53.332;9.860;2023-02-28T17:25:17;4.77;;;4.10;;
2522;SDS011;1272;53.332;9.860;2023-02-28T17:27:44;8.43;;;4.43;;
2522;SDS011;1272;53.332;9.860;2023-02-28T17:30:17;7.77;;;5.13;;
2522;SDS011;1272;53.332;9.860;2023-02-28T17:32:45;9.50;;;5.30;;
2522;SDS011;1272;53.332;9.860;2023-02-28T17:35:11;10.27;;;6.70;;
2522;SDS011;1272;53.332;9.860;2023-02-28T17:37:38;14.17;;;7.80;;
2522;SDS011;1272;53.332;9.860;2023-02-28T17:40:04;12.80;;;7.80;;
2522;SDS011;1272;53.332;9.860;2023-02-28T17:42:30;11.60;;;7.30;;
2522;SDS011;1272;53.332;9.860;2023-02-28T17:44:56;9.47;;;6.63;;
2522;SDS011;1272;53.332;9.860;2023-02-28T17:47:22;6.20;;;5.50;;
2522;SDS011;1272;53.332;9.860;2023-02-28T17:49:47;5.37;;;4.67;;
2522;SDS011;1272;53.332;9.860;2023-02-28T17:52:13;8.20;;;5.83;;
2522;SDS011;1272;53.332;9.860;2023-02-28T17:54:39;5.83;;;4.80;;
2522;SDS011;1272;53.332;9.860;2023-02-28T17:57:06;4.90;;;4.50;;
2522;SDS011;1272;53.332;9.860;2023-02-28T17:59:34;6.33;;;5.03;;
2522;SDS011;1272;53.332;9.860;2023-02-28T18:02:00;7.50;;;5.50;;
2522;SDS011;1272;53.332;9.860;2023-02-28T18:04:26;11.60;;;7.30;;